createdAt,value
2017-10-21T00:00:43.760Z,23.77
2017-10-21T00:03:11.086Z,25.13
2017-10-21T00:05:38.404Z,23.83
2017-10-21T00:08:05.836Z,26.13
2017-10-21T00:10:33.192Z,28.10
2017-10-21T00:13:00.491Z,25.00
2017-10-21T00:15:28.147Z,28.27
2017-10-21T00:17:55.532Z,32.53
2017-10-21T00:20:23.853Z,28.60
2017-10-21T00:22:51.208Z,33.67
2017-10-21T00:25:18.566Z,28.17
2017-10-21T00:27:45.873Z,28.10
2017-10-21T00:30:13.189Z,30.20
2017-10-21T00:32:40.511Z,31.47
2017-10-21T00:35:07.818Z,24.83
2017-10-21T00:37:35.142Z,28.80
2017-10-21T00:40:02.448Z,27.23
2017-10-21T00:42:29.763Z,25.50
2017-10-21T00:44:57.084Z,27.80
2017-10-21T00:47:24.400Z,28.63
2017-10-21T00:49:51.817Z,23.27
2017-10-21T00:52:19.201Z,19.83
2017-10-21T00:54:46.517Z,20.10
2017-10-21T00:57:13.834Z,21.07
2017-10-21T00:59:41.210Z,18.10
2017-10-21T01:02:08.503Z,20.20
2017-10-21T01:04:35.845Z,15.50
2017-10-21T01:07:03.156Z,32.70
2017-10-21T01:09:30.901Z,16.10
2017-10-21T01:11:58.255Z,14.57
2017-10-21T01:14:25.585Z,17.90
2017-10-21T01:16:52.885Z,16.57
2017-10-21T01:19:20.219Z,16.40
2017-10-21T01:21:47.521Z,17.67
2017-10-21T01:24:14.828Z,17.70
2017-10-21T01:26:42.163Z,15.73
2017-10-21T01:29:09.456Z,13.90
2017-10-21T01:31:36.768Z,15.93
2017-10-21T01:34:04.072Z,15.27
2017-10-21T01:36:31.401Z,13.73
2017-10-21T01:38:58.705Z,14.53
2017-10-21T01:41:27.971Z,15.43
2017-10-21T01:43:55.597Z,15.33
2017-10-21T01:46:22.972Z,17.27
2017-10-21T01:48:50.268Z,14.30
2017-10-21T01:51:17.614Z,14.23
2017-10-21T01:53:44.900Z,13.57
2017-10-21T01:56:12.261Z,15.43
2017-10-21T01:58:39.557Z,17.07
2017-10-21T02:01:06.902Z,14.40
2017-10-21T02:03:34.542Z,16.40
2017-10-21T02:06:01.845Z,13.47
2017-10-21T02:08:29.496Z,19.40
2017-10-21T02:10:56.980Z,14.53
2017-10-21T02:13:24.289Z,15.90
2017-10-21T02:15:51.663Z,14.40
2017-10-21T02:18:19.084Z,14.63
2017-10-21T02:20:46.397Z,13.67
2017-10-21T02:23:13.726Z,15.83
2017-10-21T02:25:41.015Z,15.43
2017-10-21T02:28:08.647Z,14.43
2017-10-21T02:30:36.134Z,16.13
2017-10-21T02:33:03.482Z,16.57
2017-10-21T02:35:30.962Z,12.00
2017-10-21T02:37:58.270Z,14.00
2017-10-21T02:40:25.626Z,15.53
2017-10-21T02:42:52.929Z,12.70
2017-10-21T02:45:20.250Z,16.40
2017-10-21T02:47:47.574Z,13.50
2017-10-21T02:50:14.926Z,12.77
2017-10-21T02:52:42.284Z,14.93
2017-10-21T02:55:09.622Z,14.00
2017-10-21T02:57:36.916Z,20.23
2017-10-21T03:00:04.274Z,13.40
2017-10-21T03:02:31.579Z,16.03
2017-10-21T03:04:59.188Z,13.13
2017-10-21T03:07:26.493Z,12.47
2017-10-21T03:09:53.928Z,13.07
2017-10-21T03:12:21.423Z,14.40
2017-10-21T03:14:48.720Z,14.80
2017-10-21T03:17:16.380Z,10.93
2017-10-21T03:19:43.660Z,14.80
2017-10-21T03:22:10.989Z,12.30
2017-10-21T03:24:38.284Z,14.00
2017-10-21T03:27:05.624Z,14.50
2017-10-21T03:29:33.102Z,13.27
2017-10-21T03:32:00.408Z,12.27
2017-10-21T03:34:27.737Z,11.67
2017-10-21T03:36:55.045Z,12.03
2017-10-21T03:39:22.370Z,10.47
2017-10-21T03:41:49.855Z,12.50
2017-10-21T03:44:17.400Z,13.60
2017-10-21T03:46:44.947Z,10.30
2017-10-21T03:49:12.554Z,11.30
2017-10-21T03:51:40.020Z,9.60
2017-10-21T03:54:07.321Z,8.20
2017-10-21T03:56:34.624Z,9.60
2017-10-21T03:59:02.245Z,7.20
2017-10-21T04:01:29.721Z,13.53
2017-10-21T04:03:57.092Z,9.50
2017-10-21T04:06:24.388Z,10.00
2017-10-21T04:08:51.744Z,11.13
2017-10-21T04:11:19.037Z,10.90
2017-10-21T04:13:46.373Z,10.90
2017-10-21T04:16:13.666Z,10.77
2017-10-21T04:18:41.003Z,12.27
2017-10-21T04:21:08.314Z,8.90
2017-10-21T04:23:35.642Z,9.53
2017-10-21T04:26:02.921Z,9.40
2017-10-21T04:28:30.255Z,11.43
2017-10-21T04:30:57.594Z,13.60
2017-10-21T04:33:24.892Z,10.90
2017-10-21T04:35:52.226Z,11.33
2017-10-21T04:38:19.556Z,9.80
2017-10-21T04:40:46.860Z,10.93
2017-10-21T04:43:14.681Z,8.60
2017-10-21T04:45:42.068Z,8.33
2017-10-21T04:48:09.360Z,8.67
2017-10-21T04:50:36.704Z,7.30
2017-10-21T04:53:04.005Z,18.83
2017-10-21T04:55:31.327Z,11.07
2017-10-21T04:57:58.627Z,11.57
2017-10-21T05:00:25.954Z,9.87
2017-10-21T05:02:53.244Z,9.00
2017-10-21T05:05:20.527Z,7.40
2017-10-21T05:07:47.832Z,8.83
2017-10-21T05:10:15.142Z,10.70
2017-10-21T05:12:42.464Z,11.63
2017-10-21T05:15:09.782Z,10.13
2017-10-21T05:17:37.089Z,8.30
2017-10-21T05:20:04.405Z,9.03
2017-10-21T05:22:31.707Z,9.40
2017-10-21T05:24:59.012Z,10.90
2017-10-21T05:27:26.394Z,8.10
2017-10-21T05:29:53.676Z,13.33
2017-10-21T05:32:20.994Z,8.93
2017-10-21T05:34:48.316Z,10.50
2017-10-21T05:37:15.628Z,7.37
2017-10-21T05:39:42.952Z,10.23
2017-10-21T05:42:10.273Z,9.20
2017-10-21T05:44:37.606Z,11.57
2017-10-21T05:47:04.908Z,11.47
2017-10-21T05:49:32.209Z,15.47
2017-10-21T05:51:59.517Z,9.53
2017-10-21T05:54:26.828Z,9.43
2017-10-21T05:56:54.142Z,10.77
2017-10-21T05:59:21.631Z,10.37
2017-10-21T06:01:48.929Z,11.10
2017-10-21T06:04:16.252Z,10.90
2017-10-21T06:06:43.547Z,12.93
2017-10-21T06:09:10.888Z,10.83
2017-10-21T06:11:39.117Z,12.47
2017-10-21T06:14:06.446Z,8.60
2017-10-21T06:16:33.749Z,11.97
2017-10-21T06:19:01.091Z,15.23
2017-10-21T06:21:28.375Z,9.23
2017-10-21T06:23:56.234Z,10.20
2017-10-21T06:26:23.529Z,15.23
2017-10-21T06:28:50.857Z,9.97
2017-10-21T06:31:18.177Z,12.23
2017-10-21T06:33:45.493Z,13.43
2017-10-21T06:36:12.805Z,12.83
2017-10-21T06:38:40.425Z,12.90
2017-10-21T06:41:08.033Z,9.80
2017-10-21T06:43:35.307Z,10.23
2017-10-21T06:46:02.631Z,13.50
2017-10-21T06:48:29.925Z,13.93
2017-10-21T06:50:57.242Z,15.23
2017-10-21T06:53:24.564Z,12.70
2017-10-21T06:55:51.883Z,15.07
2017-10-21T06:58:19.193Z,12.20
2017-10-21T07:00:46.564Z,11.93
2017-10-21T07:03:13.873Z,14.47
2017-10-21T07:05:41.202Z,12.40
2017-10-21T07:08:08.516Z,17.20
2017-10-21T07:10:35.831Z,9.40
2017-10-21T07:13:03.146Z,12.47
2017-10-21T07:15:30.445Z,9.87
2017-10-21T07:17:57.761Z,12.90
2017-10-21T07:20:25.070Z,11.23
2017-10-21T07:22:52.404Z,12.37
2017-10-21T07:25:19.748Z,12.93
2017-10-21T07:27:47.059Z,10.33
2017-10-21T07:30:14.368Z,12.17
2017-10-21T07:32:41.697Z,16.77
2017-10-21T07:35:09.044Z,10.77
2017-10-21T07:37:36.329Z,12.03
2017-10-21T07:40:03.668Z,13.33
2017-10-21T07:42:30.964Z,11.53
2017-10-21T07:44:58.305Z,13.87
2017-10-21T07:47:25.603Z,13.07
2017-10-21T07:49:52.942Z,13.47
2017-10-21T07:52:20.237Z,12.00
2017-10-21T07:54:47.581Z,8.83
2017-10-21T07:57:14.875Z,8.93
2017-10-21T07:59:42.213Z,11.10
2017-10-21T08:02:09.505Z,18.30
2017-10-21T08:04:37.153Z,11.73
2017-10-21T08:07:04.457Z,15.50
2017-10-21T08:09:31.764Z,15.37
2017-10-21T08:11:59.052Z,7.40
2017-10-21T08:14:26.572Z,10.50
2017-10-21T08:16:53.934Z,13.63
2017-10-21T08:19:21.269Z,9.77
2017-10-21T08:21:48.581Z,13.20
2017-10-21T08:24:15.889Z,12.50
2017-10-21T08:26:43.196Z,23.90
2017-10-21T08:29:10.631Z,16.43
2017-10-21T08:31:37.957Z,11.43
2017-10-21T08:34:05.264Z,9.97
2017-10-21T08:36:32.572Z,13.50
2017-10-21T08:38:59.878Z,11.20
2017-10-21T08:41:27.184Z,9.43
2017-10-21T08:43:54.486Z,12.00
2017-10-21T08:46:21.844Z,8.20
2017-10-21T08:48:49.148Z,22.40
2017-10-21T08:51:16.454Z,17.90
2017-10-21T08:53:43.756Z,10.83
2017-10-21T08:56:11.087Z,11.20
2017-10-21T08:58:38.393Z,12.50
2017-10-21T09:01:05.781Z,15.50
2017-10-21T09:03:33.100Z,11.20
2017-10-21T09:06:00.397Z,13.83
2017-10-21T09:08:27.705Z,9.40
2017-10-21T09:10:55.002Z,10.90
2017-10-21T09:13:22.304Z,9.97
2017-10-21T09:15:49.628Z,16.17
2017-10-21T09:18:16.955Z,17.83
2017-10-21T09:20:44.272Z,16.20
2017-10-21T09:23:11.585Z,8.60
2017-10-21T09:25:38.871Z,9.27
2017-10-21T09:28:06.168Z,12.83
2017-10-21T09:30:33.481Z,9.90
2017-10-21T09:33:04.124Z,10.67
2017-10-21T09:35:31.447Z,11.17
2017-10-21T09:37:58.731Z,18.30
2017-10-21T09:40:26.048Z,14.40
2017-10-21T09:42:53.380Z,14.63
2017-10-21T09:45:20.681Z,12.40
2017-10-21T09:47:48.005Z,13.97
2017-10-21T09:50:15.319Z,12.50
2017-10-21T09:52:42.637Z,13.70
2017-10-21T09:55:09.939Z,15.47
2017-10-21T09:57:37.240Z,14.33
2017-10-21T10:00:04.572Z,11.87
2017-10-21T10:02:31.955Z,14.87
2017-10-21T10:04:59.299Z,12.30
2017-10-21T10:07:26.688Z,13.77
2017-10-21T10:09:54.013Z,9.40
2017-10-21T10:12:21.333Z,10.83
2017-10-21T10:14:48.636Z,11.87
2017-10-21T10:17:15.949Z,14.80
2017-10-21T10:19:43.285Z,13.53
2017-10-21T10:22:10.593Z,9.07
2017-10-21T10:24:38.240Z,11.20
2017-10-21T10:27:05.563Z,12.77
2017-10-21T10:29:33.172Z,12.93
2017-10-21T10:32:00.489Z,11.53
2017-10-21T10:34:27.779Z,13.43
2017-10-21T10:36:55.100Z,8.90
2017-10-21T10:39:22.393Z,15.90
2017-10-21T10:41:49.708Z,9.60
2017-10-21T10:44:17.037Z,18.00
2017-10-21T10:46:44.344Z,9.20
2017-10-21T10:49:11.669Z,7.83
2017-10-21T10:51:38.980Z,11.03
2017-10-21T10:54:06.288Z,7.27
2017-10-21T10:56:33.592Z,10.43
2017-10-21T10:59:00.919Z,13.83
2017-10-21T11:01:28.532Z,12.27
2017-10-21T11:03:55.878Z,11.87
2017-10-21T11:06:23.212Z,12.20
2017-10-21T11:08:50.610Z,16.90
2017-10-21T11:11:18.253Z,14.23
2017-10-21T11:13:45.592Z,17.63
2017-10-21T11:16:12.889Z,12.17
2017-10-21T11:18:40.235Z,11.20
2017-10-21T11:21:07.552Z,10.80
2017-10-21T11:23:34.854Z,15.27
2017-10-21T11:26:02.185Z,13.43
2017-10-21T11:28:29.480Z,13.20
2017-10-21T11:30:56.822Z,16.20
2017-10-21T11:33:24.272Z,12.90
2017-10-21T11:35:51.609Z,13.47
2017-10-21T11:38:18.924Z,14.97
2017-10-21T11:40:46.249Z,13.53
2017-10-21T11:43:13.546Z,17.03
2017-10-21T11:45:40.882Z,18.27
2017-10-21T11:48:08.181Z,14.57
2017-10-21T11:50:35.488Z,18.03
2017-10-21T11:53:02.825Z,12.70
2017-10-21T11:55:30.128Z,16.10
2017-10-21T11:57:57.462Z,16.80
2017-10-21T12:00:24.771Z,15.27
2017-10-21T12:02:52.096Z,14.37
2017-10-21T12:05:19.392Z,11.13
2017-10-21T12:07:46.748Z,10.20
2017-10-21T12:10:14.084Z,12.53
2017-10-21T12:12:41.396Z,14.80
2017-10-21T12:15:08.833Z,10.47
2017-10-21T12:17:36.157Z,13.63
2017-10-21T12:20:03.477Z,9.23
2017-10-21T12:22:30.796Z,13.57
2017-10-21T12:24:58.115Z,14.40
2017-10-21T12:27:25.412Z,14.57
2017-10-21T12:29:52.735Z,11.87
2017-10-21T12:32:20.036Z,10.67
2017-10-21T12:34:47.356Z,10.27
2017-10-21T12:37:15.148Z,16.40
2017-10-21T12:39:42.462Z,10.13
2017-10-21T12:42:09.798Z,11.03
2017-10-21T12:44:37.118Z,10.10
2017-10-21T12:47:04.504Z,13.43
2017-10-21T12:49:31.809Z,8.80
2017-10-21T12:51:59.108Z,13.00
2017-10-21T12:54:26.470Z,11.40
2017-10-21T12:56:53.909Z,9.60
2017-10-21T12:59:21.219Z,12.00
2017-10-21T13:01:48.850Z,10.40
2017-10-21T13:04:16.221Z,10.50
2017-10-21T13:06:43.693Z,13.00
2017-10-21T13:09:10.994Z,13.10
2017-10-21T13:11:38.304Z,10.90
2017-10-21T13:14:05.608Z,13.07
2017-10-21T13:16:32.952Z,11.77
2017-10-21T13:19:00.236Z,10.37
2017-10-21T13:21:27.554Z,10.23
2017-10-21T13:23:54.882Z,10.63
2017-10-21T13:26:22.373Z,16.43
2017-10-21T13:28:49.673Z,13.17
2017-10-21T13:31:17.027Z,11.57
2017-10-21T13:33:44.371Z,9.77
2017-10-21T13:36:11.709Z,14.07
2017-10-21T13:38:39.003Z,12.77
2017-10-21T13:41:06.313Z,10.07
2017-10-21T13:43:33.636Z,11.43
2017-10-21T13:46:00.941Z,12.90
2017-10-21T13:48:28.293Z,11.17
2017-10-21T13:50:55.588Z,12.63
2017-10-21T13:53:22.937Z,15.70
2017-10-21T13:55:50.277Z,14.10
2017-10-21T13:58:18.620Z,9.37
2017-10-21T14:00:45.935Z,15.63
2017-10-21T14:03:13.263Z,13.40
2017-10-21T14:05:40.557Z,13.27
2017-10-21T14:08:07.868Z,10.97
2017-10-21T14:10:35.246Z,8.60
2017-10-21T14:13:02.793Z,18.83
2017-10-21T14:15:30.278Z,10.67
2017-10-21T14:17:57.623Z,11.17
2017-10-21T14:20:24.934Z,12.90
2017-10-21T14:22:52.262Z,11.80
2017-10-21T14:25:19.572Z,13.73
2017-10-21T14:27:46.884Z,15.73
2017-10-21T14:30:14.193Z,13.00
2017-10-21T14:32:41.533Z,14.30
2017-10-21T14:35:08.868Z,14.10
2017-10-21T14:37:36.170Z,13.97
2017-10-21T14:40:03.501Z,15.00
2017-10-21T14:42:30.792Z,17.57
2017-10-21T14:44:58.112Z,14.60
2017-10-21T14:47:25.433Z,9.70
2017-10-21T14:49:52.749Z,11.37
2017-10-21T14:52:20.045Z,16.17
2017-10-21T14:54:47.341Z,10.90
2017-10-21T14:57:14.647Z,10.90
2017-10-21T14:59:41.958Z,13.23
2017-10-21T15:02:09.285Z,10.53
2017-10-21T15:04:36.568Z,16.73
2017-10-21T15:07:03.915Z,16.30
2017-10-21T15:09:31.212Z,21.17
2017-10-21T15:11:58.532Z,17.80
2017-10-21T15:14:25.833Z,18.50
2017-10-21T15:16:53.148Z,28.20
2017-10-21T15:19:20.439Z,18.97
2017-10-21T15:21:47.770Z,22.73
2017-10-21T15:24:15.083Z,15.70
2017-10-21T15:26:42.369Z,17.50
2017-10-21T15:29:09.704Z,20.60
2017-10-21T15:31:37.005Z,23.93
2017-10-21T15:34:04.366Z,18.30
2017-10-21T15:36:31.664Z,18.90
2017-10-21T15:38:58.988Z,17.00
2017-10-21T15:41:26.291Z,18.30
2017-10-21T15:43:53.670Z,16.90
2017-10-21T15:46:20.974Z,19.73
2017-10-21T15:48:48.324Z,16.30
2017-10-21T15:51:15.622Z,19.50
2017-10-21T15:53:42.919Z,22.63
2017-10-21T15:56:10.266Z,20.93
2017-10-21T15:58:37.581Z,20.47
2017-10-21T16:01:04.901Z,19.63
2017-10-21T16:03:32.208Z,24.93
2017-10-21T16:05:59.546Z,17.87
2017-10-21T16:08:26.878Z,17.80
2017-10-21T16:10:54.180Z,20.17
2017-10-21T16:13:21.495Z,26.93
2017-10-21T16:15:48.823Z,21.50
2017-10-21T16:18:16.122Z,33.03
2017-10-21T16:20:43.473Z,25.83
2017-10-21T16:23:10.807Z,27.63
2017-10-21T16:25:38.184Z,29.67
2017-10-21T16:28:05.513Z,29.17
2017-10-21T16:30:32.834Z,29.50
2017-10-21T16:33:00.186Z,33.13
2017-10-21T16:35:27.487Z,34.40
2017-10-21T16:37:54.845Z,27.77
2017-10-21T16:40:22.159Z,27.77
2017-10-21T16:42:49.514Z,31.37
2017-10-21T16:45:17.772Z,30.20
2017-10-21T16:47:45.088Z,27.50
2017-10-21T16:50:12.392Z,33.13
2017-10-21T16:52:39.713Z,31.03
2017-10-21T16:55:07.021Z,26.33
2017-10-21T16:57:34.332Z,20.77
2017-10-21T17:00:02.000Z,27.70
2017-10-21T17:02:29.394Z,22.00
2017-10-21T17:04:56.728Z,25.23
2017-10-21T17:07:24.051Z,30.43
2017-10-21T17:09:51.418Z,25.47
2017-10-21T17:12:18.704Z,29.20
2017-10-21T17:14:46.016Z,27.20
2017-10-21T17:17:13.340Z,25.13
2017-10-21T17:19:40.675Z,26.77
2017-10-21T17:22:07.977Z,25.63
2017-10-21T17:24:35.449Z,24.03
2017-10-21T17:27:02.772Z,19.17
2017-10-21T17:29:30.099Z,20.40
2017-10-21T17:31:57.414Z,20.53
2017-10-21T17:34:24.730Z,18.37
2017-10-21T17:36:52.044Z,20.10
2017-10-21T17:39:19.360Z,21.83
2017-10-21T17:41:46.684Z,19.43
2017-10-21T17:44:14.019Z,22.47
2017-10-21T17:46:41.328Z,18.00
2017-10-21T17:49:08.642Z,20.57
2017-10-21T17:51:36.001Z,22.33
2017-10-21T17:54:03.313Z,21.80
2017-10-21T17:56:30.677Z,17.70
2017-10-21T17:58:57.964Z,19.10
2017-10-21T18:01:25.292Z,22.03
2017-10-21T18:03:52.588Z,25.90
2017-10-21T18:06:19.941Z,19.63
2017-10-21T18:08:47.265Z,18.10
2017-10-21T18:11:14.577Z,23.33
2017-10-21T18:13:41.903Z,18.23
2017-10-21T18:16:09.197Z,22.50
2017-10-21T18:18:36.532Z,24.17
2017-10-21T18:21:03.838Z,21.10
2017-10-21T18:23:31.166Z,17.10
2017-10-21T18:25:58.465Z,23.87
2017-10-21T18:28:25.812Z,23.93
2017-10-21T18:30:53.116Z,23.10
2017-10-21T18:33:20.434Z,27.17
2017-10-21T18:35:47.753Z,21.87
2017-10-21T18:38:15.333Z,26.33
2017-10-21T18:40:42.645Z,23.33
2017-10-21T18:43:09.967Z,25.90
2017-10-21T18:45:37.276Z,22.90
2017-10-21T18:48:04.593Z,21.60
2017-10-21T18:50:31.926Z,28.20
2017-10-21T18:52:59.232Z,28.70
2017-10-21T18:55:26.548Z,28.63
2017-10-21T18:57:53.862Z,22.10
2017-10-21T19:00:21.175Z,22.50
2017-10-21T19:02:48.494Z,27.43
2017-10-21T19:05:15.822Z,24.93
2017-10-21T19:07:43.138Z,25.30
2017-10-21T19:10:10.465Z,23.60
2017-10-21T19:12:37.789Z,29.70
2017-10-21T19:15:05.105Z,27.40
2017-10-21T19:17:32.416Z,28.87
2017-10-21T19:19:59.739Z,20.50
2017-10-21T19:22:27.048Z,22.00
2017-10-21T19:24:54.343Z,25.63
2017-10-21T19:27:21.714Z,22.17
2017-10-21T19:29:49.009Z,19.77
2017-10-21T19:32:16.330Z,28.00
2017-10-21T19:34:43.680Z,23.13
2017-10-21T19:37:11.004Z,21.50
2017-10-21T19:39:38.311Z,22.83
2017-10-21T19:42:05.660Z,26.83
2017-10-21T19:44:32.964Z,23.33
2017-10-21T19:47:00.290Z,26.57
2017-10-21T19:49:27.602Z,26.33
2017-10-21T19:51:54.915Z,27.43
2017-10-21T19:54:22.308Z,24.03
2017-10-21T19:56:49.728Z,25.67
2017-10-21T19:59:17.028Z,24.73
2017-10-21T20:01:44.340Z,24.20
2017-10-21T20:04:11.738Z,22.53
2017-10-21T20:06:39.053Z,27.23
2017-10-21T20:09:06.360Z,28.93
2017-10-21T20:11:33.660Z,34.20
2017-10-21T20:14:01.294Z,24.90
2017-10-21T20:16:28.663Z,31.70
2017-10-21T20:18:55.996Z,26.50
2017-10-21T20:21:23.301Z,27.47
2017-10-21T20:23:50.625Z,24.67
2017-10-21T20:26:17.928Z,24.87
2017-10-21T20:28:45.250Z,21.00
2017-10-21T20:31:12.564Z,29.73
2017-10-21T20:33:39.890Z,21.13
2017-10-21T20:36:07.218Z,28.40
2017-10-21T20:38:34.516Z,19.47
2017-10-21T20:41:01.858Z,21.30
2017-10-21T20:43:29.153Z,18.47
2017-10-21T20:45:56.493Z,21.10
2017-10-21T20:48:23.792Z,19.03
2017-10-21T20:50:51.132Z,23.03
2017-10-21T20:53:18.453Z,30.77
2017-10-21T20:55:45.784Z,18.73
2017-10-21T20:58:13.117Z,20.50
2017-10-21T21:00:40.601Z,17.20
2017-10-21T21:03:07.914Z,19.27
2017-10-21T21:05:35.245Z,22.30
2017-10-21T21:08:02.544Z,22.83
2017-10-21T21:10:30.199Z,22.63
2017-10-21T21:12:57.569Z,21.07
2017-10-21T21:15:24.913Z,17.27
2017-10-21T21:17:52.207Z,20.50
2017-10-21T21:20:19.511Z,19.60
2017-10-21T21:22:46.836Z,23.33
2017-10-21T21:25:15.046Z,20.87
2017-10-21T21:27:42.392Z,22.50
2017-10-21T21:30:09.707Z,25.50
2017-10-21T21:32:37.066Z,17.23
2017-10-21T21:35:04.794Z,23.50
2017-10-21T21:37:32.119Z,20.13
2017-10-21T21:39:59.455Z,20.10
2017-10-21T21:42:26.789Z,21.73
2017-10-21T21:44:54.085Z,20.07
2017-10-21T21:47:21.397Z,23.37
2017-10-21T21:49:48.706Z,18.13
2017-10-21T21:52:16.004Z,20.20
2017-10-21T21:54:43.348Z,20.83
2017-10-21T21:57:10.654Z,17.60
2017-10-21T21:59:37.991Z,29.23
2017-10-21T22:02:05.295Z,25.97
2017-10-21T22:04:32.619Z,19.60
2017-10-21T22:06:59.929Z,20.27
2017-10-21T22:09:27.266Z,23.30
2017-10-21T22:11:54.566Z,23.60
2017-10-21T22:14:22.726Z,22.73
2017-10-21T22:16:50.033Z,21.43
2017-10-21T22:19:17.364Z,23.23
2017-10-21T22:21:44.665Z,25.80
2017-10-21T22:24:11.989Z,18.50
2017-10-21T22:26:39.292Z,23.20
2017-10-21T22:29:06.608Z,21.70
2017-10-21T22:31:33.929Z,23.97
2017-10-21T22:34:01.230Z,22.23
2017-10-21T22:36:28.540Z,21.20
2017-10-21T22:38:55.896Z,24.27
2017-10-21T22:41:23.216Z,25.17
2017-10-21T22:43:50.529Z,25.47
2017-10-21T22:46:17.847Z,18.60
2017-10-21T22:48:45.172Z,23.23
2017-10-21T22:51:12.501Z,22.40
2017-10-21T22:53:39.805Z,26.67
2017-10-21T22:56:07.138Z,19.37
2017-10-21T22:58:34.437Z,26.20
2017-10-21T23:01:01.740Z,25.77
2017-10-21T23:03:29.076Z,23.13
2017-10-21T23:05:56.385Z,25.60
2017-10-21T23:08:23.719Z,22.80
2017-10-21T23:10:51.077Z,22.93
2017-10-21T23:13:18.397Z,23.33
2017-10-21T23:15:45.716Z,25.00
2017-10-21T23:18:13.036Z,18.13
2017-10-21T23:20:40.644Z,22.20
2017-10-21T23:23:08.137Z,22.97
2017-10-21T23:25:35.449Z,22.30
2017-10-21T23:28:02.785Z,25.23
2017-10-21T23:30:30.116Z,24.53
2017-10-21T23:32:57.468Z,18.80
2017-10-21T23:35:24.796Z,25.27
2017-10-21T23:37:52.091Z,30.43
2017-10-21T23:40:19.415Z,24.73
2017-10-21T23:42:46.717Z,23.77
2017-10-21T23:45:14.057Z,24.00
2017-10-21T23:47:41.353Z,27.70
2017-10-21T23:50:08.688Z,23.93
2017-10-21T23:52:35.988Z,29.03
2017-10-21T23:55:03.320Z,27.00
2017-10-21T23:57:30.629Z,25.00
2017-10-21T23:59:57.967Z,25.57
